createdAt,value
2019-04-20T00:03:34.296Z,16.60
2019-04-20T00:08:29.645Z,16.50
2019-04-20T00:13:36.594Z,16.50
2019-04-20T00:18:36.889Z,16.40
2019-04-20T00:23:46.235Z,16.30
2019-04-20T00:29:02.307Z,16.30
2019-04-20T00:33:58.355Z,16.10
2019-04-20T00:38:51.983Z,15.90
2019-04-20T00:43:49.182Z,15.80
2019-04-20T00:48:55.905Z,15.70
2019-04-20T00:53:53.842Z,15.60
2019-04-20T00:59:05.794Z,15.60
2019-04-20T01:04:16.361Z,15.50
2019-04-20T01:08:59.216Z,15.40
2019-04-20T01:14:04.657Z,15.30
2019-04-20T01:19:00.274Z,15.20
2019-04-20T01:24:03.545Z,15.10
2019-04-20T01:29:13.409Z,15.20
2019-04-20T01:34:14.672Z,15.20
2019-04-20T01:39:16.394Z,15.20
2019-04-20T01:44:07.129Z,15.20
2019-04-20T01:49:11.498Z,15.20
2019-04-20T01:54:29.862Z,15.10
2019-04-20T01:59:46.106Z,15.10
2019-04-20T02:04:58.645Z,15.10
2019-04-20T02:09:59.945Z,15.10
2019-04-20T02:15:01.115Z,15.00
2019-04-20T02:20:16.532Z,14.90
2019-04-20T02:24:59.563Z,14.90
2019-04-20T02:30:30.129Z,14.80
2019-04-20T02:36:08.194Z,14.80
2019-04-20T02:40:58.383Z,14.70
2019-04-20T02:50:59.044Z,14.50
2019-04-20T02:56:08.599Z,14.30
2019-04-20T03:00:56.302Z,14.10
2019-04-20T03:05:43.214Z,14.10
2019-04-20T03:11:03.649Z,14.10
2019-04-20T03:15:56.453Z,13.90
2019-04-20T03:21:04.582Z,13.90
2019-04-20T03:26:13.791Z,13.70
2019-04-20T03:31:41.546Z,13.60
2019-04-20T03:36:23.172Z,13.30
2019-04-20T03:41:05.228Z,13.00
2019-04-20T03:46:01.442Z,13.00
2019-04-20T03:51:17.104Z,12.80
2019-04-20T03:56:34.672Z,12.60
2019-04-20T04:06:44.365Z,12.70
2019-04-20T04:11:56.019Z,12.70
2019-04-20T04:16:45.697Z,12.60
2019-04-20T04:21:59.486Z,12.60
2019-04-20T04:26:54.837Z,12.40
2019-04-20T04:32:12.789Z,12.50
2019-04-20T04:37:03.672Z,12.40
2019-04-20T04:42:14.635Z,12.50
2019-04-20T04:46:56.069Z,12.40
2019-04-20T04:51:58.553Z,12.40
2019-04-20T04:56:52.576Z,12.40
2019-04-20T05:01:55.462Z,12.50
2019-04-20T05:07:07.921Z,12.30
2019-04-20T05:12:02.326Z,12.20
2019-04-20T05:17:11.699Z,12.30
2019-04-20T05:22:25.002Z,12.30
2019-04-20T05:27:36.142Z,12.30
2019-04-20T05:32:24.948Z,12.30
2019-04-20T05:37:47.540Z,12.30
2019-04-20T05:42:48.353Z,12.40
2019-04-20T05:47:48.252Z,12.50
2019-04-20T05:52:56.154Z,12.50
2019-04-20T05:57:56.656Z,12.70
2019-04-20T06:02:56.607Z,12.90
2019-04-20T06:08:03.484Z,13.10
2019-04-20T06:13:00.286Z,13.20
2019-04-20T06:18:27.851Z,13.40
2019-04-20T06:23:50.849Z,13.50
2019-04-20T06:28:40.570Z,13.70
2019-04-20T06:39:38.622Z,14.20
2019-04-20T06:54:53.956Z,14.60
2019-04-20T07:00:00.408Z,14.60
2019-04-20T07:04:59.444Z,14.90
2019-04-20T07:10:11.009Z,15.00
2019-04-20T07:14:49.632Z,15.20
2019-04-20T07:20:09.856Z,15.40
2019-04-20T07:25:16.098Z,15.60
2019-04-20T07:30:16.243Z,16.00
2019-04-20T07:35:21.698Z,16.20
2019-04-20T07:40:21.644Z,16.70
2019-04-20T07:50:18.638Z,17.00
2019-04-20T08:00:35.478Z,17.50
2019-04-20T08:05:41.890Z,17.60
2019-04-20T08:10:47.439Z,17.80
2019-04-20T08:16:06.634Z,17.80
2019-04-20T08:20:52.832Z,18.10
2019-04-20T08:25:47.053Z,18.20
2019-04-20T08:31:20.327Z,18.50
2019-04-20T08:36:36.021Z,18.70
2019-04-20T08:41:25.078Z,18.70
2019-04-20T08:46:32.117Z,19.00
2019-04-20T08:51:44.679Z,19.30
2019-04-20T08:56:29.089Z,19.50
2019-04-20T09:01:24.569Z,19.90
2019-04-20T09:06:33.670Z,20.20
2019-04-20T09:11:45.216Z,20.40
2019-04-20T09:16:26.950Z,20.70
2019-04-20T09:21:34.553Z,21.10
2019-04-20T09:26:43.252Z,21.30
2019-04-20T09:31:51.957Z,21.40
2019-04-20T09:37:04.679Z,21.50
2019-04-20T09:42:00.694Z,21.60
2019-04-20T09:46:59.469Z,21.90
2019-04-20T09:52:15.671Z,22.20
2019-04-20T09:57:22.922Z,22.10
2019-04-20T10:02:07.684Z,22.10
2019-04-20T10:07:06.693Z,22.50
2019-04-20T10:12:03.791Z,22.70
2019-04-20T10:17:03.591Z,22.70
2019-04-20T10:22:04.558Z,22.70
2019-04-20T10:27:04.522Z,22.80
2019-04-20T10:32:10.244Z,23.00
2019-04-20T10:37:13.401Z,23.00
2019-04-20T10:42:14.227Z,23.10
2019-04-20T10:47:14.738Z,23.40
2019-04-20T10:52:15.875Z,23.40
2019-04-20T10:57:15.686Z,23.30
2019-04-20T11:02:16.048Z,23.50
2019-04-20T11:07:16.580Z,23.60
2019-04-20T11:12:16.670Z,23.90
2019-04-20T11:17:16.436Z,24.00
2019-04-20T11:22:16.662Z,24.10
2019-04-20T11:27:16.429Z,24.30
2019-04-20T11:32:18.056Z,24.30
2019-04-20T11:37:19.285Z,24.30
2019-04-20T11:42:19.532Z,24.40
2019-04-20T11:47:19.386Z,24.20
2019-04-20T11:52:21.428Z,24.10
2019-04-20T11:57:21.542Z,24.10
2019-04-20T12:02:39.803Z,24.00
2019-04-20T12:07:55.419Z,24.10
2019-04-20T12:12:55.810Z,24.00
2019-04-20T12:17:55.708Z,23.90
2019-04-20T12:22:55.716Z,23.80
2019-04-20T12:27:58.636Z,23.80
2019-04-20T12:33:01.499Z,23.90
2019-04-20T12:37:58.937Z,24.00
2019-04-20T12:42:59.206Z,24.20
2019-04-20T12:47:59.632Z,24.30
2019-04-20T12:53:00.184Z,24.40
2019-04-20T12:58:00.640Z,24.50
2019-04-20T13:03:01.174Z,24.20
2019-04-20T13:08:02.973Z,24.10
2019-04-20T13:13:10.288Z,24.40
2019-04-20T13:18:11.517Z,24.40
2019-04-20T13:23:11.314Z,24.40
2019-04-20T13:28:11.084Z,24.40
2019-04-20T13:33:11.845Z,24.40
2019-04-20T13:38:12.020Z,24.60
2019-04-20T13:43:12.204Z,24.60
2019-04-20T13:48:12.913Z,24.40
2019-04-20T13:53:12.654Z,24.20
2019-04-20T13:58:31.579Z,23.80
2019-04-20T14:03:32.281Z,23.70
2019-04-20T14:08:33.686Z,23.80
2019-04-20T14:13:38.965Z,23.80
2019-04-20T14:18:35.389Z,23.70
2019-04-20T14:23:35.099Z,23.70
2019-04-20T14:28:34.750Z,23.70
2019-04-20T14:33:34.872Z,23.60
2019-04-20T14:38:36.139Z,23.20
2019-04-20T14:43:38.223Z,23.00
2019-04-20T14:48:39.099Z,22.80
2019-04-20T14:53:38.738Z,22.70
2019-04-20T14:58:45.308Z,22.30
2019-04-20T15:03:45.455Z,22.30
2019-04-20T15:08:45.285Z,22.40
2019-04-20T15:13:44.938Z,22.30
2019-04-20T15:18:51.792Z,22.40
2019-04-20T15:23:51.234Z,22.40
2019-04-20T15:28:52.395Z,22.30
2019-04-20T15:33:52.815Z,22.10
2019-04-20T15:38:53.351Z,22.00
2019-04-20T15:43:53.308Z,21.80
2019-04-20T15:48:52.966Z,21.40
2019-04-20T15:53:53.533Z,21.50
2019-04-20T15:58:54.558Z,21.20
2019-04-20T16:03:59.407Z,21.10
2019-04-20T16:09:01.939Z,21.00
2019-04-20T16:14:05.050Z,21.00
2019-04-20T16:19:14.646Z,21.00
2019-04-20T16:24:13.207Z,20.90
2019-04-20T16:29:15.418Z,20.90
2019-04-20T16:34:15.949Z,20.80
2019-04-20T16:39:16.531Z,20.90
2019-04-20T16:44:17.551Z,20.90
2019-04-20T16:49:17.378Z,20.70
2019-04-20T16:54:17.595Z,20.80
2019-04-20T16:59:19.192Z,20.90
2019-04-20T17:04:22.376Z,20.70
2019-04-20T17:09:21.962Z,20.60
2019-04-20T17:14:23.765Z,20.50
2019-04-20T17:19:23.919Z,20.20
2019-04-20T17:24:24.994Z,20.00
2019-04-20T17:29:30.110Z,19.90
2019-04-20T17:34:48.205Z,19.80
2019-04-20T17:39:45.296Z,19.80
2019-04-20T17:44:47.857Z,19.80
2019-04-20T17:49:57.129Z,19.90
2019-04-20T17:54:47.334Z,19.90
2019-04-20T17:59:55.423Z,19.70
2019-04-20T18:05:26.922Z,19.40
2019-04-20T18:10:26.258Z,19.30
2019-04-20T18:15:31.475Z,19.20
2019-04-20T18:20:23.226Z,19.10
2019-04-20T18:25:50.750Z,19.00
2019-04-20T18:30:57.351Z,18.70
2019-04-20T18:35:54.051Z,18.70
2019-04-20T18:41:01.236Z,18.50
2019-04-20T18:46:15.096Z,18.30
2019-04-20T18:50:57.467Z,18.40
2019-04-20T18:55:59.457Z,18.50
2019-04-20T19:00:59.075Z,18.60
2019-04-20T19:06:00.076Z,18.50
2019-04-20T19:11:06.730Z,18.50
2019-04-20T19:16:30.666Z,18.50
2019-04-20T19:21:21.578Z,18.40
2019-04-20T19:26:23.217Z,18.20
2019-04-20T19:31:41.042Z,18.00
2019-04-20T19:36:33.531Z,17.90
2019-04-20T19:41:39.083Z,17.80
2019-04-20T19:46:48.250Z,17.70
2019-04-20T19:51:55.677Z,17.70
2019-04-20T19:56:44.969Z,17.80
2019-04-20T20:01:33.754Z,17.70
2019-04-20T20:06:42.668Z,17.60
2019-04-20T20:11:39.121Z,17.60
2019-04-20T20:16:56.262Z,17.30
2019-04-20T20:21:54.468Z,17.10
2019-04-20T20:26:44.653Z,17.10
2019-04-20T20:32:01.794Z,16.90
2019-04-20T20:36:51.489Z,16.80
2019-04-20T20:41:56.379Z,16.70
2019-04-20T20:46:58.687Z,16.50
2019-04-20T20:52:09.801Z,16.20
2019-04-20T20:56:59.851Z,15.90
2019-04-20T21:02:00.950Z,15.40
2019-04-20T21:06:52.801Z,15.10
2019-04-20T21:12:00.720Z,15.10
2019-04-20T21:17:02.902Z,14.90
2019-04-20T21:22:04.894Z,14.90
2019-04-20T21:27:01.608Z,15.10
2019-04-20T21:32:08.179Z,15.30
2019-04-20T21:37:09.928Z,15.40
2019-04-20T21:42:10.400Z,15.60
2019-04-20T21:47:05.286Z,15.60
2019-04-20T21:52:16.074Z,15.60
2019-04-20T21:57:09.294Z,15.60
2019-04-20T22:02:16.719Z,15.60
2019-04-20T22:07:12.380Z,15.60
2019-04-20T22:12:12.202Z,15.50
2019-04-20T22:17:16.284Z,15.50
2019-04-20T22:22:30.820Z,15.40
2019-04-20T22:27:22.002Z,15.30
2019-04-20T22:32:17.351Z,15.30
2019-04-20T22:37:22.961Z,15.20
2019-04-20T22:42:20.480Z,15.20
2019-04-20T22:47:25.483Z,15.20
2019-04-20T22:52:39.033Z,15.10
2019-04-20T22:57:39.586Z,15.00
2019-04-20T23:02:26.906Z,15.00
2019-04-20T23:07:26.950Z,14.90
2019-04-20T23:12:27.553Z,14.90
2019-04-20T23:17:35.918Z,14.90
2019-04-20T23:22:36.846Z,14.80
2019-04-20T23:27:35.122Z,14.80
2019-04-20T23:32:33.831Z,14.80
2019-04-20T23:37:36.806Z,14.80
2019-04-20T23:42:44.543Z,14.60
2019-04-20T23:47:56.028Z,14.60
2019-04-20T23:53:09.989Z,14.50
2019-04-20T23:58:00.723Z,14.50
